WetterOnline ( https://www.wetteronline.de )

Wetter aktuell Sonthofen

Aktuelles Wetter: Oberstdorf (812m)

6-stündlich | Neueste Meldungen
Ortszeit Temperatur Wetter
Mo, 21.09. 14:00 21.0° C wolkenlos
Mo, 21.09. 8:00 8.6° C leicht bewölkt
Mo, 21.09. 2:00 12.1° C bewölkt
So, 20.09. 20:00 15.9° C leichter Regen
So, 20.09. 14:00 22.5° C leicht bewölkt
So, 20.09. 8:00 12.0° C wolkig
So, 20.09. 2:00 14.1° C wolkig
Sa, 19.09. 20:00 15.5° C bewölkt
Ortszeit Temperatur Wetter
Mo, 21.09. 18:30 14.8° C Regen
Mo, 21.09. 18:20 14.8° C Regen
Mo, 21.09. 18:10 14.6° C leichter Regen
Mo, 21.09. 18:00 14.7° C leichter Regen
Mo, 21.09. 17:50 14.7° C leichter Regen
Mo, 21.09. 17:40 14.4° C starker Regen
Mo, 21.09. 17:30 16.9° C leichter Regen
Mo, 21.09. 17:00 19.5° C bedeckt
Mo, 21.09. 16:30 20.5° C bewölkt
Mo, 21.09. 16:00 21.2° C leicht bewölkt
Ortszeit Relative Feuchte Sichtweite
Mo, 21.09. 14:00 66% 40 km
Mo, 21.09. 8:00 100% 1.5 km
Mo, 21.09. 2:00 100% 50 km
So, 20.09. 20:00 91% 23 km
So, 20.09. 14:00 54% 35 km
So, 20.09. 8:00 98% 13 km
So, 20.09. 2:00 99% 19 km
Sa, 19.09. 20:00 90% 25 km
Ortszeit Relative Feuchte Sichtweite
Mo, 21.09. 18:30 92% 8 km
Mo, 21.09. 18:20 92% -
Mo, 21.09. 18:10 90% -
Mo, 21.09. 18:00 90% 15 km
Mo, 21.09. 17:50 90% -
Mo, 21.09. 17:40 93% -
Mo, 21.09. 17:30 78% 21 km
Mo, 21.09. 17:00 73% 40 km
Mo, 21.09. 16:30 68% 35 km
Mo, 21.09. 16:00 62% 50 km
Ortszeit Niederschlagsmenge Niederschlagsart
Mo, 21.09. 14:00 0.0 l/m2 in 6 Std. -
Mo, 21.09. 8:00 4 l/m2 in 12 Std. -
Mo, 21.09. 2:00 4 l/m2 in 6 Std. Regen
So, 20.09. 20:00 6 l/m2 in 12 Std. Regen
So, 20.09. 14:00 0.0 l/m2 in 6 Std. -
So, 20.09. 8:00 0.1 l/m2 in 12 Std. -
So, 20.09. 2:00 0.1 l/m2 in 6 Std. Regen
Sa, 19.09. 20:00 0.0 l/m2 in 12 Std. -
Ortszeit Niederschlagsmenge Niederschlagsart
Mo, 21.09. 18:30 0.5 l/m2 in 1 Std. -
Mo, 21.09. 18:20 keine Meldung -
Mo, 21.09. 18:10 keine Meldung -
Mo, 21.09. 18:00 12.4 l/m2 in 1 Std. Regenschauer
Mo, 21.09. 17:50 keine Meldung -
Mo, 21.09. 17:40 keine Meldung -
Mo, 21.09. 17:30 0.1 l/m2 in 1 Std. -
Mo, 21.09. 17:00 0.0 l/m2 in 1 Std. -
Mo, 21.09. 16:30 0.0 l/m2 in 1 Std. -
Mo, 21.09. 16:00 0.0 l/m2 in 1 Std. -
Ortszeit Stärke Spitze Richtung
km/h Bft. km/h Grad Sektor
Mo, 21.09. 14:00 11 2 18 340° N
Mo, 21.09. 8:00 4 1 11 170° S
Mo, 21.09. 2:00 7 2 29 190° S
So, 20.09. 20:00 14 3 43 160° S
So, 20.09. 14:00 11 2 22 330° NW
So, 20.09. 8:00 4 1 11 150° SO
So, 20.09. 2:00 7 2 11 160° S
Sa, 19.09. 20:00 7 2 29 160° S
Ortszeit Stärke Spitze Richtung
km/h Bft. km/h Grad Sektor
Mo, 21.09. 18:30 17 3 28 150° SO
Mo, 21.09. 18:20 17 3 - 150° SO
Mo, 21.09. 18:10 18 3 - 160° S
Mo, 21.09. 18:00 17 3 35 170° S
Mo, 21.09. 17:50 17 3 - 170° S
Mo, 21.09. 17:40 11 2 - 110° O
Mo, 21.09. 17:30 9 2 28 140° SO
Mo, 21.09. 17:00 17 3 24 10° N
Mo, 21.09. 16:30 13 3 20 310° NW
Mo, 21.09. 16:00 9 2 22 330° NW
Ortszeit Untergrenze Bedeckung Gattung
total tief tief mittel hoch
Mo, 21.09. 14:00 - 0/8 0/8 - - -
Mo, 21.09. 8:00 <30 m 5/8 0/8 - - -
Mo, 21.09. 2:00 <30 m 7/8 0/8 - - -
So, 20.09. 20:00 1800 m 8/8 8/8 - - -
So, 20.09. 14:00 9000 m 6/8 0/8 - - -
So, 20.09. 8:00 3900 m 6/8 6/8 - - -
So, 20.09. 2:00 2700 m 8/8 3/8 - - -
Sa, 19.09. 20:00 5100 m 7/8 7/8 - - -
Ortszeit Bedeckungsgrad in Achtel und Wolkenuntergrenze
Mo, 21.09. 18:30 5(2100m) 8(2400m)
Mo, 21.09. 18:20 5(2100m) 8(2400m)
Mo, 21.09. 18:10 7(2400m)
Mo, 21.09. 18:00 2(900m) 5(1500m) 7(2100m)
Mo, 21.09. 17:50 2(900m) 5(1500m) 7(2100m)
Mo, 21.09. 17:40 2(840m) 7(1200m) 7(1500m)
Mo, 21.09. 17:30 3(900m) 7(1470m) 8(1800m)
Mo, 21.09. 17:00 1(840m) 7(1350m) 8(1500m)
Mo, 21.09. 16:30 3(990m) 7(1290m) 7(1500m)
Mo, 21.09. 16:00 2(1230m) 3(1440m)
Ortszeit Stationsdruck (hPa) Tendenz (hPa in 3 Std.)
Mo, 21.09. 14:00 924 - 0,7
Mo, 21.09. 8:00 925 + 0,4
Mo, 21.09. 2:00 924 + 0,2
So, 20.09. 20:00 924 + 2,6
So, 20.09. 14:00 922 - 0,7
So, 20.09. 8:00 923 - 0,5
So, 20.09. 2:00 924 - 0,8
Sa, 19.09. 20:00 925 - 0,1
Ortszeit Stationsdruck (hPa) Tendenz (hPa in 3 Std.)
Mo, 21.09. 18:30 924 + 0,9
Mo, 21.09. 18:20 924 keine Meldung
Mo, 21.09. 18:10 924 keine Meldung
Mo, 21.09. 18:00 924 + 0,9
Mo, 21.09. 17:50 924 keine Meldung
Mo, 21.09. 17:40 924 keine Meldung
Mo, 21.09. 17:30 924 + 0,2
Mo, 21.09. 17:00 923 - 0,7
Mo, 21.09. 16:30 923 - 0,9
Mo, 21.09. 16:00 923 - 1,0
Ortszeit Schneehöhe (cm)
Mo, 21.09. 14:00 0
Mo, 21.09. 8:00 0
Mo, 21.09. 2:00 0
So, 20.09. 20:00 0
So, 20.09. 14:00 0
So, 20.09. 8:00 0
So, 20.09. 2:00 0
Sa, 19.09. 20:00 0
Ortszeit Schneehöhe (cm)
Mo, 21.09. 18:30 0
Mo, 21.09. 18:20 0
Mo, 21.09. 18:10 0
Mo, 21.09. 18:00 0
Mo, 21.09. 17:50 0
Mo, 21.09. 17:40 0
Mo, 21.09. 17:30 0
Mo, 21.09. 17:00 0
Mo, 21.09. 16:30 0
Mo, 21.09. 16:00 0
Link zu dieser Seite / Seite empfehlen

Das Wetter in ...